sensor_id;sensor_type;location;lat;lon;timestamp;temperature;humidity
15983;DHT22;14442;50.196;8.096;2023-08-08T00:01:37;19.20;63.80
15983;DHT22;14442;50.196;8.096;2023-08-08T00:04:04;19.20;63.80
15983;DHT22;14442;50.196;8.096;2023-08-08T00:06:33;19.20;63.80
15983;DHT22;14442;50.196;8.096;2023-08-08T00:09:02;19.20;63.80
15983;DHT22;14442;50.196;8.096;2023-08-08T00:11:32;19.20;63.70
15983;DHT22;14442;50.196;8.096;2023-08-08T00:14:03;19.20;63.70
15983;DHT22;14442;50.196;8.096;2023-08-08T00:16:38;19.20;64.00
15983;DHT22;14442;50.196;8.096;2023-08-08T00:19:05;19.10;63.60
15983;DHT22;14442;50.196;8.096;2023-08-08T00:21:32;19.10;63.60
15983;DHT22;14442;50.196;8.096;2023-08-08T00:24:02;19.10;63.60
15983;DHT22;14442;50.196;8.096;2023-08-08T00:26:29;19.10;63.60
15983;DHT22;14442;50.196;8.096;2023-08-08T00:28:56;19.10;63.60
15983;DHT22;14442;50.196;8.096;2023-08-08T00:31:23;19.10;64.30
15983;DHT22;14442;50.196;8.096;2023-08-08T00:33:50;19.10;63.60
15983;DHT22;14442;50.196;8.096;2023-08-08T00:36:25;19.10;63.60
15983;DHT22;14442;50.196;8.096;2023-08-08T00:38:52;19.10;63.60
15983;DHT22;14442;50.196;8.096;2023-08-08T00:41:20;19.10;63.60
15983;DHT22;14442;50.196;8.096;2023-08-08T00:43:47;19.10;63.60
15983;DHT22;14442;50.196;8.096;2023-08-08T00:46:16;19.10;63.60
15983;DHT22;14442;50.196;8.096;2023-08-08T00:48:43;19.10;63.60
15983;DHT22;14442;50.196;8.096;2023-08-08T00:51:10;19.10;63.60
15983;DHT22;14442;50.196;8.096;2023-08-08T00:53:37;19.10;63.60
15983;DHT22;14442;50.196;8.096;2023-08-08T00:56:04;19.10;63.50
15983;DHT22;14442;50.196;8.096;2023-08-08T00:58:33;19.10;63.50
15983;DHT22;14442;50.196;8.096;2023-08-08T01:01:01;19.10;63.50
15983;DHT22;14442;50.196;8.096;2023-08-08T01:03:28;19.10;63.50
15983;DHT22;14442;50.196;8.096;2023-08-08T01:06:03;19.10;63.50
15983;DHT22;14442;50.196;8.096;2023-08-08T01:08:42;19.10;63.50
15983;DHT22;14442;50.196;8.096;2023-08-08T01:11:10;19.10;63.60
15983;DHT22;14442;50.196;8.096;2023-08-08T01:13:40;19.10;63.50
15983;DHT22;14442;50.196;8.096;2023-08-08T01:16:07;19.10;63.60
15983;DHT22;14442;50.196;8.096;2023-08-08T01:18:36;19.00;63.40
15983;DHT22;14442;50.196;8.096;2023-08-08T01:21:04;19.00;63.40
15983;DHT22;14442;50.196;8.096;2023-08-08T01:23:44;19.00;63.40
15983;DHT22;14442;50.196;8.096;2023-08-08T01:26:13;19.10;63.50
15983;DHT22;14442;50.196;8.096;2023-08-08T01:28:42;19.10;63.50
15983;DHT22;14442;50.196;8.096;2023-08-08T01:31:09;19.00;63.40
15983;DHT22;14442;50.196;8.096;2023-08-08T01:33:36;19.10;63.50
15983;DHT22;14442;50.196;8.096;2023-08-08T01:36:07;19.00;63.40
15983;DHT22;14442;50.196;8.096;2023-08-08T01:38:41;19.00;63.40
15983;DHT22;14442;50.196;8.096;2023-08-08T01:41:09;19.00;63.40
15983;DHT22;14442;50.196;8.096;2023-08-08T01:43:38;19.00;63.40
15983;DHT22;14442;50.196;8.096;2023-08-08T01:46:05;19.00;63.40
15983;DHT22;14442;50.196;8.096;2023-08-08T01:48:32;19.00;63.40
15983;DHT22;14442;50.196;8.096;2023-08-08T01:50:59;19.00;63.40
15983;DHT22;14442;50.196;8.096;2023-08-08T01:53:26;19.00;63.40
15983;DHT22;14442;50.196;8.096;2023-08-08T01:55:53;19.00;63.40
15983;DHT22;14442;50.196;8.096;2023-08-08T01:58:20;19.00;63.40
15983;DHT22;14442;50.196;8.096;2023-08-08T02:00:48;19.00;63.40
15983;DHT22;14442;50.196;8.096;2023-08-08T02:03:15;19.00;63.40
15983;DHT22;14442;50.196;8.096;2023-08-08T02:05:41;19.00;63.40
15983;DHT22;14442;50.196;8.096;2023-08-08T02:08:08;19.00;63.40
15983;DHT22;14442;50.196;8.096;2023-08-08T02:10:35;19.00;63.40
15983;DHT22;14442;50.196;8.096;2023-08-08T02:13:02;19.00;63.40
15983;DHT22;14442;50.196;8.096;2023-08-08T02:15:28;19.00;63.40
15983;DHT22;14442;50.196;8.096;2023-08-08T02:17:56;19.00;63.40
15983;DHT22;14442;50.196;8.096;2023-08-08T02:20:23;18.90;63.30
15983;DHT22;14442;50.196;8.096;2023-08-08T02:22:50;18.90;63.20
15983;DHT22;14442;50.196;8.096;2023-08-08T02:25:17;18.90;63.30
15983;DHT22;14442;50.196;8.096;2023-08-08T02:27:43;18.90;63.20
15983;DHT22;14442;50.196;8.096;2023-08-08T02:30:11;18.90;63.20
15983;DHT22;14442;50.196;8.096;2023-08-08T02:32:39;19.00;63.30
15983;DHT22;14442;50.196;8.096;2023-08-08T02:35:08;18.90;63.20
15983;DHT22;14442;50.196;8.096;2023-08-08T02:37:35;18.90;63.20
15983;DHT22;14442;50.196;8.096;2023-08-08T02:40:01;18.90;63.20
15983;DHT22;14442;50.196;8.096;2023-08-08T02:42:29;18.90;63.20
15983;DHT22;14442;50.196;8.096;2023-08-08T02:44:55;18.90;63.20
15983;DHT22;14442;50.196;8.096;2023-08-08T02:47:22;18.90;63.20
15983;DHT22;14442;50.196;8.096;2023-08-08T02:49:50;18.90;63.20
15983;DHT22;14442;50.196;8.096;2023-08-08T02:52:18;18.90;63.20
15983;DHT22;14442;50.196;8.096;2023-08-08T02:54:45;18.90;63.20
15983;DHT22;14442;50.196;8.096;2023-08-08T02:57:12;18.90;63.90
15983;DHT22;14442;50.196;8.096;2023-08-08T02:59:38;18.90;63.20
15983;DHT22;14442;50.196;8.096;2023-08-08T03:02:06;18.90;63.20
15983;DHT22;14442;50.196;8.096;2023-08-08T03:04:32;18.90;63.20
15983;DHT22;14442;50.196;8.096;2023-08-08T03:06:59;18.90;63.90
15983;DHT22;14442;50.196;8.096;2023-08-08T03:09:30;18.80;63.10
15983;DHT22;14442;50.196;8.096;2023-08-08T03:11:57;18.90;63.20
15983;DHT22;14442;50.196;8.096;2023-08-08T03:14:24;18.80;63.00
15983;DHT22;14442;50.196;8.096;2023-08-08T03:16:51;18.80;63.80
15983;DHT22;14442;50.196;8.096;2023-08-08T03:19:18;18.80;63.10
15983;DHT22;14442;50.196;8.096;2023-08-08T03:21:44;18.80;63.10
15983;DHT22;14442;50.196;8.096;2023-08-08T03:24:11;18.90;63.20
15983;DHT22;14442;50.196;8.096;2023-08-08T03:26:39;18.80;63.00
15983;DHT22;14442;50.196;8.096;2023-08-08T03:29:06;18.80;63.10
15983;DHT22;14442;50.196;8.096;2023-08-08T03:31:35;18.80;63.00
15983;DHT22;14442;50.196;8.096;2023-08-08T03:34:02;18.90;63.10
15983;DHT22;14442;50.196;8.096;2023-08-08T03:36:30;18.90;63.10
15983;DHT22;14442;50.196;8.096;2023-08-08T03:38:56;18.80;63.10
15983;DHT22;14442;50.196;8.096;2023-08-08T03:41:23;18.80;63.00
15983;DHT22;14442;50.196;8.096;2023-08-08T03:43:53;18.80;63.00
15983;DHT22;14442;50.196;8.096;2023-08-08T03:46:21;18.80;63.10
15983;DHT22;14442;50.196;8.096;2023-08-08T03:48:48;18.80;63.00
15983;DHT22;14442;50.196;8.096;2023-08-08T03:51:15;18.80;63.10
15983;DHT22;14442;50.196;8.096;2023-08-08T03:53:42;18.80;63.10
15983;DHT22;14442;50.196;8.096;2023-08-08T03:56:09;18.80;63.10
15983;DHT22;14442;50.196;8.096;2023-08-08T03:58:37;18.80;63.00
15983;DHT22;14442;50.196;8.096;2023-08-08T04:01:05;18.80;63.00
15983;DHT22;14442;50.196;8.096;2023-08-08T04:03:32;18.80;63.00
15983;DHT22;14442;50.196;8.096;2023-08-08T04:05:59;18.80;63.00
15983;DHT22;14442;50.196;8.096;2023-08-08T04:08:26;18.80;63.00
15983;DHT22;14442;50.196;8.096;2023-08-08T04:10:53;18.80;63.00
15983;DHT22;14442;50.196;8.096;2023-08-08T04:13:20;18.80;63.00
15983;DHT22;14442;50.196;8.096;2023-08-08T04:15:46;18.70;63.00
15983;DHT22;14442;50.196;8.096;2023-08-08T04:18:15;18.70;63.00
15983;DHT22;14442;50.196;8.096;2023-08-08T04:20:41;18.70;63.00
15983;DHT22;14442;50.196;8.096;2023-08-08T04:23:08;18.70;63.00
15983;DHT22;14442;50.196;8.096;2023-08-08T04:25:35;18.70;62.90
15983;DHT22;14442;50.196;8.096;2023-08-08T04:28:02;18.70;62.90
15983;DHT22;14442;50.196;8.096;2023-08-08T04:30:29;18.70;63.60
15983;DHT22;14442;50.196;8.096;2023-08-08T04:32:55;18.70;62.90
15983;DHT22;14442;50.196;8.096;2023-08-08T04:35:23;18.70;62.90
15983;DHT22;14442;50.196;8.096;2023-08-08T04:37:50;18.70;62.90
15983;DHT22;14442;50.196;8.096;2023-08-08T04:40:17;18.70;62.90
15983;DHT22;14442;50.196;8.096;2023-08-08T04:42:44;18.70;63.60
15983;DHT22;14442;50.196;8.096;2023-08-08T04:45:10;18.70;62.90
15983;DHT22;14442;50.196;8.096;2023-08-08T04:47:38;18.70;62.90
15983;DHT22;14442;50.196;8.096;2023-08-08T04:50:05;18.70;62.90
15983;DHT22;14442;50.196;8.096;2023-08-08T04:52:33;18.70;62.90
15983;DHT22;14442;50.196;8.096;2023-08-08T04:55:00;18.70;62.90
15983;DHT22;14442;50.196;8.096;2023-08-08T04:57:27;18.70;62.90
15983;DHT22;14442;50.196;8.096;2023-08-08T04:59:53;18.70;62.80
15983;DHT22;14442;50.196;8.096;2023-08-08T05:02:20;18.70;62.90
15983;DHT22;14442;50.196;8.096;2023-08-08T05:04:47;18.70;62.80
15983;DHT22;14442;50.196;8.096;2023-08-08T05:07:13;18.70;62.80
15983;DHT22;14442;50.196;8.096;2023-08-08T05:09:42;18.70;62.80
15983;DHT22;14442;50.196;8.096;2023-08-08T05:12:09;18.70;62.80
15983;DHT22;14442;50.196;8.096;2023-08-08T05:14:35;18.70;62.80
15983;DHT22;14442;50.196;8.096;2023-08-08T05:17:02;18.70;62.70
15983;DHT22;14442;50.196;8.096;2023-08-08T05:19:29;18.70;62.70
15983;DHT22;14442;50.196;8.096;2023-08-08T05:21:56;18.70;62.70
15983;DHT22;14442;50.196;8.096;2023-08-08T05:24:23;18.70;62.70
15983;DHT22;14442;50.196;8.096;2023-08-08T05:26:51;18.70;62.70
15983;DHT22;14442;50.196;8.096;2023-08-08T05:29:18;18.70;62.70
15983;DHT22;14442;50.196;8.096;2023-08-08T05:31:45;18.70;62.70
15983;DHT22;14442;50.196;8.096;2023-08-08T05:34:12;18.70;62.70
15983;DHT22;14442;50.196;8.096;2023-08-08T05:36:39;18.70;62.60
15983;DHT22;14442;50.196;8.096;2023-08-08T05:39:06;18.70;62.60
15983;DHT22;14442;50.196;8.096;2023-08-08T05:41:35;18.70;62.70
15983;DHT22;14442;50.196;8.096;2023-08-08T05:44:03;18.70;62.60
15983;DHT22;14442;50.196;8.096;2023-08-08T05:46:30;18.70;62.60
15983;DHT22;14442;50.196;8.096;2023-08-08T05:48:56;18.70;62.60
15983;DHT22;14442;50.196;8.096;2023-08-08T05:51:23;18.70;62.60
15983;DHT22;14442;50.196;8.096;2023-08-08T05:53:50;18.70;62.60
15983;DHT22;14442;50.196;8.096;2023-08-08T05:56:16;18.70;62.60
15983;DHT22;14442;50.196;8.096;2023-08-08T05:58:43;18.70;62.60
15983;DHT22;14442;50.196;8.096;2023-08-08T06:01:11;18.70;62.60
15983;DHT22;14442;50.196;8.096;2023-08-08T06:03:38;18.70;62.60
15983;DHT22;14442;50.196;8.096;2023-08-08T06:06:05;18.70;62.60
15983;DHT22;14442;50.196;8.096;2023-08-08T06:08:32;18.70;62.60
15983;DHT22;14442;50.196;8.096;2023-08-08T06:10:58;18.70;62.60
15983;DHT22;14442;50.196;8.096;2023-08-08T06:13:25;18.70;62.60
15983;DHT22;14442;50.196;8.096;2023-08-08T06:15:52;18.80;62.70
15983;DHT22;14442;50.196;8.096;2023-08-08T06:18:20;18.70;62.60
15983;DHT22;14442;50.196;8.096;2023-08-08T06:20:46;18.70;62.60
15983;DHT22;14442;50.196;8.096;2023-08-08T06:23:13;18.70;62.50
15983;DHT22;14442;50.196;8.096;2023-08-08T06:25:40;18.70;62.60
15983;DHT22;14442;50.196;8.096;2023-08-08T06:28:07;18.70;62.50
15983;DHT22;14442;50.196;8.096;2023-08-08T06:30:33;18.80;62.70
15983;DHT22;14442;50.196;8.096;2023-08-08T06:33:00;18.80;62.60
15983;DHT22;14442;50.196;8.096;2023-08-08T06:35:28;18.70;62.60
15983;DHT22;14442;50.196;8.096;2023-08-08T06:37:55;18.70;62.60
15983;DHT22;14442;50.196;8.096;2023-08-08T06:40:22;18.70;62.50
15983;DHT22;14442;50.196;8.096;2023-08-08T06:42:49;18.70;62.50
15983;DHT22;14442;50.196;8.096;2023-08-08T06:45:16;18.70;62.60
15983;DHT22;14442;50.196;8.096;2023-08-08T06:47:42;18.70;62.50
15983;DHT22;14442;50.196;8.096;2023-08-08T06:50:09;18.70;63.20
15983;DHT22;14442;50.196;8.096;2023-08-08T06:52:37;18.80;62.70
15983;DHT22;14442;50.196;8.096;2023-08-08T06:55:05;18.70;62.50
15983;DHT22;14442;50.196;8.096;2023-08-08T06:57:32;18.70;62.50
15983;DHT22;14442;50.196;8.096;2023-08-08T06:59:59;18.80;62.60
15983;DHT22;14442;50.196;8.096;2023-08-08T07:02:26;18.80;62.60
15983;DHT22;14442;50.196;8.096;2023-08-08T07:04:53;18.80;62.60
15983;DHT22;14442;50.196;8.096;2023-08-08T07:07:19;18.80;62.60
15983;DHT22;14442;50.196;8.096;2023-08-08T07:09:48;18.80;62.60
15983;DHT22;14442;50.196;8.096;2023-08-08T07:12:16;18.80;62.60
15983;DHT22;14442;50.196;8.096;2023-08-08T07:14:42;18.80;62.60
15983;DHT22;14442;50.196;8.096;2023-08-08T07:17:09;18.80;62.60
15983;DHT22;14442;50.196;8.096;2023-08-08T07:19:36;18.80;62.90
15983;DHT22;14442;50.196;8.096;2023-08-08T07:22:03;18.80;63.20
15983;DHT22;14442;50.196;8.096;2023-08-08T07:24:29;18.80;63.30
15983;DHT22;14442;50.196;8.096;2023-08-08T07:26:58;18.90;63.60
15983;DHT22;14442;50.196;8.096;2023-08-08T07:29:25;19.00;64.50
15983;DHT22;14442;50.196;8.096;2023-08-08T07:31:52;19.10;65.00
15983;DHT22;14442;50.196;8.096;2023-08-08T07:34:20;19.20;64.80
15983;DHT22;14442;50.196;8.096;2023-08-08T07:36:47;19.10;64.70
15983;DHT22;14442;50.196;8.096;2023-08-08T07:39:14;19.00;64.70
15983;DHT22;14442;50.196;8.096;2023-08-08T07:41:40;19.00;64.50
15983;DHT22;14442;50.196;8.096;2023-08-08T07:44:08;19.10;64.30
15983;DHT22;14442;50.196;8.096;2023-08-08T07:46:35;19.10;64.40
15983;DHT22;14442;50.196;8.096;2023-08-08T07:49:02;19.10;64.30
15983;DHT22;14442;50.196;8.096;2023-08-08T07:51:30;19.10;64.30
15983;DHT22;14442;50.196;8.096;2023-08-08T07:53:57;19.10;64.20
15983;DHT22;14442;50.196;8.096;2023-08-08T07:56:24;19.10;64.20
15983;DHT22;14442;50.196;8.096;2023-08-08T07:58:51;19.10;64.20
15983;DHT22;14442;50.196;8.096;2023-08-08T08:01:19;19.10;64.10
15983;DHT22;14442;50.196;8.096;2023-08-08T08:03:45;19.20;64.30
15983;DHT22;14442;50.196;8.096;2023-08-08T08:06:12;19.10;64.10
15983;DHT22;14442;50.196;8.096;2023-08-08T08:08:39;19.20;64.30
15983;DHT22;14442;50.196;8.096;2023-08-08T08:11:06;19.20;64.30
15983;DHT22;14442;50.196;8.096;2023-08-08T08:13:32;19.20;64.20
15983;DHT22;14442;50.196;8.096;2023-08-08T08:15:59;19.20;64.20
15983;DHT22;14442;50.196;8.096;2023-08-08T08:18:27;19.20;64.30
15983;DHT22;14442;50.196;8.096;2023-08-08T08:20:57;19.20;64.30
15983;DHT22;14442;50.196;8.096;2023-08-08T08:23:24;19.30;64.40
15983;DHT22;14442;50.196;8.096;2023-08-08T08:25:50;19.30;64.40
15983;DHT22;14442;50.196;8.096;2023-08-08T08:28:17;19.20;64.30
15983;DHT22;14442;50.196;8.096;2023-08-08T08:30:44;19.30;64.40
15983;DHT22;14442;50.196;8.096;2023-08-08T08:33:10;19.30;64.40
15983;DHT22;14442;50.196;8.096;2023-08-08T08:35:39;19.20;64.30
15983;DHT22;14442;50.196;8.096;2023-08-08T08:38:05;19.30;64.30
15983;DHT22;14442;50.196;8.096;2023-08-08T08:40:36;19.20;64.30
15983;DHT22;14442;50.196;8.096;2023-08-08T08:43:04;19.30;64.30
15983;DHT22;14442;50.196;8.096;2023-08-08T08:45:31;19.30;64.40
15983;DHT22;14442;50.196;8.096;2023-08-08T08:47:59;19.30;64.40
15983;DHT22;14442;50.196;8.096;2023-08-08T08:50:27;19.30;64.40
15983;DHT22;14442;50.196;8.096;2023-08-08T08:52:58;19.30;64.30
15983;DHT22;14442;50.196;8.096;2023-08-08T08:55:25;19.30;64.40
15983;DHT22;14442;50.196;8.096;2023-08-08T08:57:53;19.30;64.20
15983;DHT22;14442;50.196;8.096;2023-08-08T09:00:20;19.30;64.10
15983;DHT22;14442;50.196;8.096;2023-08-08T09:02:48;19.30;64.10
15983;DHT22;14442;50.196;8.096;2023-08-08T09:05:16;19.30;64.20
15983;DHT22;14442;50.196;8.096;2023-08-08T09:07:43;19.30;64.10
15983;DHT22;14442;50.196;8.096;2023-08-08T09:10:12;19.30;64.10
15983;DHT22;14442;50.196;8.096;2023-08-08T09:12:40;19.30;64.10
15983;DHT22;14442;50.196;8.096;2023-08-08T09:15:07;19.30;64.10
15983;DHT22;14442;50.196;8.096;2023-08-08T09:17:35;19.30;64.10
15983;DHT22;14442;50.196;8.096;2023-08-08T09:20:03;19.30;64.00
15983;DHT22;14442;50.196;8.096;2023-08-08T09:22:30;19.30;64.00
15983;DHT22;14442;50.196;8.096;2023-08-08T09:24:57;19.30;64.00
15983;DHT22;14442;50.196;8.096;2023-08-08T09:27:28;19.30;63.80
15983;DHT22;14442;50.196;8.096;2023-08-08T09:29:55;19.40;64.10
15983;DHT22;14442;50.196;8.096;2023-08-08T09:32:22;19.40;64.00
15983;DHT22;14442;50.196;8.096;2023-08-08T09:34:48;19.40;64.00
15983;DHT22;14442;50.196;8.096;2023-08-08T09:37:15;19.40;64.00
15983;DHT22;14442;50.196;8.096;2023-08-08T09:39:44;19.40;63.90
15983;DHT22;14442;50.196;8.096;2023-08-08T09:42:10;19.40;63.90
15983;DHT22;14442;50.196;8.096;2023-08-08T09:44:39;19.40;63.80
15983;DHT22;14442;50.196;8.096;2023-08-08T09:47:05;19.40;63.90
15983;DHT22;14442;50.196;8.096;2023-08-08T09:49:33;19.30;63.70
15983;DHT22;14442;50.196;8.096;2023-08-08T09:52:02;19.30;63.60
15983;DHT22;14442;50.196;8.096;2023-08-08T09:54:30;19.30;63.50
15983;DHT22;14442;50.196;8.096;2023-08-08T09:56:57;19.20;63.50
15983;DHT22;14442;50.196;8.096;2023-08-08T09:59:25;19.20;63.40
15983;DHT22;14442;50.196;8.096;2023-08-08T10:01:53;19.20;63.30
15983;DHT22;14442;50.196;8.096;2023-08-08T10:04:22;19.20;63.30
15983;DHT22;14442;50.196;8.096;2023-08-08T10:06:49;19.20;63.20
15983;DHT22;14442;50.196;8.096;2023-08-08T10:09:16;19.30;63.20
15983;DHT22;14442;50.196;8.096;2023-08-08T10:11:44;19.30;63.10
15983;DHT22;14442;50.196;8.096;2023-08-08T10:14:12;19.30;62.90
15983;DHT22;14442;50.196;8.096;2023-08-08T10:16:41;19.30;62.60
15983;DHT22;14442;50.196;8.096;2023-08-08T10:19:10;19.40;62.40
15983;DHT22;14442;50.196;8.096;2023-08-08T10:21:41;19.50;62.30
15983;DHT22;14442;50.196;8.096;2023-08-08T10:24:09;19.50;62.40
15983;DHT22;14442;50.196;8.096;2023-08-08T10:26:51;19.50;62.40
15983;DHT22;14442;50.196;8.096;2023-08-08T10:29:19;19.50;62.50
15983;DHT22;14442;50.196;8.096;2023-08-08T10:31:51;19.60;62.50
15983;DHT22;14442;50.196;8.096;2023-08-08T10:34:20;19.60;62.40
15983;DHT22;14442;50.196;8.096;2023-08-08T10:36:51;19.60;62.30
15983;DHT22;14442;50.196;8.096;2023-08-08T10:39:18;19.60;62.30
15983;DHT22;14442;50.196;8.096;2023-08-08T10:41:47;19.60;62.20
15983;DHT22;14442;50.196;8.096;2023-08-08T10:44:22;19.60;62.30
15983;DHT22;14442;50.196;8.096;2023-08-08T10:46:50;19.70;62.40
15983;DHT22;14442;50.196;8.096;2023-08-08T10:49:19;19.80;62.30
15983;DHT22;14442;50.196;8.096;2023-08-08T10:51:47;19.80;62.40
15983;DHT22;14442;50.196;8.096;2023-08-08T10:54:16;19.80;62.40
15983;DHT22;14442;50.196;8.096;2023-08-08T10:56:48;19.90;62.50
15983;DHT22;14442;50.196;8.096;2023-08-08T10:59:17;19.90;63.30
15983;DHT22;14442;50.196;8.096;2023-08-08T11:01:48;19.90;62.60
15983;DHT22;14442;50.196;8.096;2023-08-08T11:04:17;20.00;62.70
15983;DHT22;14442;50.196;8.096;2023-08-08T11:06:46;19.90;62.70
15983;DHT22;14442;50.196;8.096;2023-08-08T11:09:16;19.90;62.70
15983;DHT22;14442;50.196;8.096;2023-08-08T11:11:43;19.80;62.60
15983;DHT22;14442;50.196;8.096;2023-08-08T11:14:12;19.80;62.60
15983;DHT22;14442;50.196;8.096;2023-08-08T11:16:39;19.80;62.70
15983;DHT22;14442;50.196;8.096;2023-08-08T11:19:06;19.80;62.40
15983;DHT22;14442;50.196;8.096;2023-08-08T11:21:34;19.90;62.30
15983;DHT22;14442;50.196;8.096;2023-08-08T11:24:05;20.00;62.20
15983;DHT22;14442;50.196;8.096;2023-08-08T11:26:32;20.00;62.10
15983;DHT22;14442;50.196;8.096;2023-08-08T11:29:00;20.00;62.00
15983;DHT22;14442;50.196;8.096;2023-08-08T11:31:27;20.00;62.00
15983;DHT22;14442;50.196;8.096;2023-08-08T11:33:55;20.10;62.00
15983;DHT22;14442;50.196;8.096;2023-08-08T11:36:22;20.10;61.90
15983;DHT22;14442;50.196;8.096;2023-08-08T11:38:49;20.00;61.80
15983;DHT22;14442;50.196;8.096;2023-08-08T11:41:22;20.10;62.00
15983;DHT22;14442;50.196;8.096;2023-08-08T11:43:50;20.10;62.00
15983;DHT22;14442;50.196;8.096;2023-08-08T11:46:17;20.20;62.10
15983;DHT22;14442;50.196;8.096;2023-08-08T11:48:46;20.20;62.00
15983;DHT22;14442;50.196;8.096;2023-08-08T11:51:14;20.20;62.00
15983;DHT22;14442;50.196;8.096;2023-08-08T11:53:48;20.20;62.00
15983;DHT22;14442;50.196;8.096;2023-08-08T11:56:15;20.20;62.10
15983;DHT22;14442;50.196;8.096;2023-08-08T11:58:43;20.30;62.20
15983;DHT22;14442;50.196;8.096;2023-08-08T12:01:10;20.30;62.20
15983;DHT22;14442;50.196;8.096;2023-08-08T12:03:39;20.30;62.20
15983;DHT22;14442;50.196;8.096;2023-08-08T12:06:11;20.30;62.10
15983;DHT22;14442;50.196;8.096;2023-08-08T12:08:40;20.30;61.90
15983;DHT22;14442;50.196;8.096;2023-08-08T12:11:08;20.30;61.90
15983;DHT22;14442;50.196;8.096;2023-08-08T12:13:37;20.30;62.10
15983;DHT22;14442;50.196;8.096;2023-08-08T12:16:06;20.30;62.10
15983;DHT22;14442;50.196;8.096;2023-08-08T12:18:35;20.30;62.10
15983;DHT22;14442;50.196;8.096;2023-08-08T12:21:03;20.30;62.10
15983;DHT22;14442;50.196;8.096;2023-08-08T12:23:30;20.40;62.20
15983;DHT22;14442;50.196;8.096;2023-08-08T12:25:57;20.40;62.20
15983;DHT22;14442;50.196;8.096;2023-08-08T12:28:24;20.40;62.10
15983;DHT22;14442;50.196;8.096;2023-08-08T12:30:51;20.40;62.20
15983;DHT22;14442;50.196;8.096;2023-08-08T12:33:19;20.40;62.20
15983;DHT22;14442;50.196;8.096;2023-08-08T12:35:47;20.30;62.20
15983;DHT22;14442;50.196;8.096;2023-08-08T12:38:14;20.30;63.10
15983;DHT22;14442;50.196;8.096;2023-08-08T12:40:40;20.30;62.30
15983;DHT22;14442;50.196;8.096;2023-08-08T12:43:09;20.30;62.30
15983;DHT22;14442;50.196;8.096;2023-08-08T12:45:35;20.30;62.30
15983;DHT22;14442;50.196;8.096;2023-08-08T12:48:02;20.30;62.10
15983;DHT22;14442;50.196;8.096;2023-08-08T12:50:31;20.30;62.00
15983;DHT22;14442;50.196;8.096;2023-08-08T12:52:57;20.30;62.10
15983;DHT22;14442;50.196;8.096;2023-08-08T12:55:24;20.30;62.10
15983;DHT22;14442;50.196;8.096;2023-08-08T12:57:51;20.30;62.10
15983;DHT22;14442;50.196;8.096;2023-08-08T13:00:18;20.20;61.90
15983;DHT22;14442;50.196;8.096;2023-08-08T13:02:44;20.20;61.70
15983;DHT22;14442;50.196;8.096;2023-08-08T13:05:11;20.40;61.70
15983;DHT22;14442;50.196;8.096;2023-08-08T13:07:39;20.50;61.70
15983;DHT22;14442;50.196;8.096;2023-08-08T13:10:07;20.50;61.70
15983;DHT22;14442;50.196;8.096;2023-08-08T13:12:34;20.60;61.50
15983;DHT22;14442;50.196;8.096;2023-08-08T13:15:01;20.60;61.40
15983;DHT22;14442;50.196;8.096;2023-08-08T13:17:28;20.70;61.40
15983;DHT22;14442;50.196;8.096;2023-08-08T13:19:54;20.80;61.40
15983;DHT22;14442;50.196;8.096;2023-08-08T13:22:21;20.90;61.70
15983;DHT22;14442;50.196;8.096;2023-08-08T13:24:49;20.90;62.40
15983;DHT22;14442;50.196;8.096;2023-08-08T13:27:16;20.90;62.60
15983;DHT22;14442;50.196;8.096;2023-08-08T13:29:43;20.90;62.70
15983;DHT22;14442;50.196;8.096;2023-08-08T13:32:10;21.00;62.70
15983;DHT22;14442;50.196;8.096;2023-08-08T13:34:37;21.00;62.70
15983;DHT22;14442;50.196;8.096;2023-08-08T13:37:04;21.00;62.60
15983;DHT22;14442;50.196;8.096;2023-08-08T13:39:38;21.00;62.50
15983;DHT22;14442;50.196;8.096;2023-08-08T13:42:24;21.00;62.40
15983;DHT22;14442;50.196;8.096;2023-08-08T13:44:51;21.00;62.20
15983;DHT22;14442;50.196;8.096;2023-08-08T13:47:18;21.00;62.20
15983;DHT22;14442;50.196;8.096;2023-08-08T13:49:45;21.10;62.20
15983;DHT22;14442;50.196;8.096;2023-08-08T13:52:12;21.10;62.20
15983;DHT22;14442;50.196;8.096;2023-08-08T13:54:39;21.10;62.10
15983;DHT22;14442;50.196;8.096;2023-08-08T13:57:06;21.10;62.00
15983;DHT22;14442;50.196;8.096;2023-08-08T13:59:34;21.10;61.90
15983;DHT22;14442;50.196;8.096;2023-08-08T14:02:01;21.10;61.90
15983;DHT22;14442;50.196;8.096;2023-08-08T14:04:28;21.10;61.80
15983;DHT22;14442;50.196;8.096;2023-08-08T14:06:55;21.10;61.80
15983;DHT22;14442;50.196;8.096;2023-08-08T14:09:22;21.10;61.80
15983;DHT22;14442;50.196;8.096;2023-08-08T14:11:48;21.10;61.70
15983;DHT22;14442;50.196;8.096;2023-08-08T14:14:15;21.10;61.70
15983;DHT22;14442;50.196;8.096;2023-08-08T14:16:43;21.20;61.80
15983;DHT22;14442;50.196;8.096;2023-08-08T14:19:10;21.20;61.70
15983;DHT22;14442;50.196;8.096;2023-08-08T14:21:38;21.10;61.50
15983;DHT22;14442;50.196;8.096;2023-08-08T14:24:05;21.10;61.70
15983;DHT22;14442;50.196;8.096;2023-08-08T14:26:32;21.10;61.50
15983;DHT22;14442;50.196;8.096;2023-08-08T14:28:59;21.20;61.60
15983;DHT22;14442;50.196;8.096;2023-08-08T14:31:25;21.20;61.60
15983;DHT22;14442;50.196;8.096;2023-08-08T14:33:53;21.20;61.50
15983;DHT22;14442;50.196;8.096;2023-08-08T14:36:20;21.20;61.60
15983;DHT22;14442;50.196;8.096;2023-08-08T14:38:47;21.20;61.50
15983;DHT22;14442;50.196;8.096;2023-08-08T14:41:14;21.20;61.50
15983;DHT22;14442;50.196;8.096;2023-08-08T14:43:41;21.20;61.50
15983;DHT22;14442;50.196;8.096;2023-08-08T14:46:07;21.20;61.40
15983;DHT22;14442;50.196;8.096;2023-08-08T14:48:34;21.20;61.40
15983;DHT22;14442;50.196;8.096;2023-08-08T14:51:03;21.20;61.40
15983;DHT22;14442;50.196;8.096;2023-08-08T14:53:29;21.20;61.50
15983;DHT22;14442;50.196;8.096;2023-08-08T14:55:56;21.20;61.40
15983;DHT22;14442;50.196;8.096;2023-08-08T14:58:23;21.30;61.40
15983;DHT22;14442;50.196;8.096;2023-08-08T15:00:50;21.30;61.40
15983;DHT22;14442;50.196;8.096;2023-08-08T15:03:17;21.20;61.20
15983;DHT22;14442;50.196;8.096;2023-08-08T15:05:45;21.20;61.40
15983;DHT22;14442;50.196;8.096;2023-08-08T15:08:15;21.10;61.50
15983;DHT22;14442;50.196;8.096;2023-08-08T15:10:43;21.10;61.60
15983;DHT22;14442;50.196;8.096;2023-08-08T15:13:10;21.10;61.70
15983;DHT22;14442;50.196;8.096;2023-08-08T15:15:37;21.10;61.40
15983;DHT22;14442;50.196;8.096;2023-08-08T15:18:04;21.20;61.20
15983;DHT22;14442;50.196;8.096;2023-08-08T15:20:31;21.20;61.10
15983;DHT22;14442;50.196;8.096;2023-08-08T15:22:58;21.20;61.00
15983;DHT22;14442;50.196;8.096;2023-08-08T15:25:26;21.20;61.00
15983;DHT22;14442;50.196;8.096;2023-08-08T15:27:56;21.20;61.10
15983;DHT22;14442;50.196;8.096;2023-08-08T15:30:23;21.20;61.10
15983;DHT22;14442;50.196;8.096;2023-08-08T15:32:50;21.10;61.00